Time;durP1;ratioP1;P1;durP2;ratioP2;P2;SDS_P1;SDS_P2;PMS_P1;PMS_P2;Temp;Humidity;BMP_temperature;BMP_pressure;BME280_temperature;BME280_humidity;BME280_pressure;Samples;Min_cycle;Max_cycle;Signal;HPM_P1;HPM_P2
2024/02/10 00:00:15;;;;;;;9.85;6.65;;;9.80;99.90;;;;;;4900556;29;20043;-80
2024/02/10 00:02:43;;;;;;;6.72;4.45;;;9.80;99.90;;;;;;4885453;29;20062;-80
2024/02/10 00:05:13;;;;;;;11.05;6.50;;;9.80;99.90;;;;;;4900305;29;20052;-79
2024/02/10 00:07:45;;;;;;;6.30;4.68;;;9.70;99.90;;;;;;4903344;29;20058;-81
2024/02/10 00:10:13;;;;;;;7.88;4.22;;;9.70;99.90;;;;;;4930995;29;20414;-79
2024/02/10 00:12:41;;;;;;;10.52;7.88;;;9.70;99.90;;;;;;4916091;29;20046;-80
2024/02/10 00:15:10;;;;;;;5.65;4.32;;;9.70;99.90;;;;;;4903626;29;20103;-79
2024/02/10 00:17:40;;;;;;;7.65;6.05;;;9.70;99.90;;;;;;4904750;29;20051;-81
2024/02/10 00:20:15;;;;;;;6.55;5.00;;;9.70;99.90;;;;;;4899808;29;20039;-80
2024/02/10 00:22:43;;;;;;;9.27;6.55;;;9.70;99.90;;;;;;4907822;29;20079;-80
2024/02/10 00:25:10;;;;;;;9.00;7.28;;;9.70;99.90;;;;;;4902415;29;20056;-80
2024/02/10 00:27:39;;;;;;;6.95;5.18;;;9.80;99.90;;;;;;4901456;29;20577;-80
2024/02/10 00:30:08;;;;;;;8.45;6.32;;;9.80;99.90;;;;;;4932181;29;20051;-80
2024/02/10 00:32:37;;;;;;;10.38;6.18;;;9.90;99.90;;;;;;4903869;29;20040;-79
2024/02/10 00:35:06;;;;;;;8.68;7.15;;;9.90;99.90;;;;;;4935029;29;20040;-80
2024/02/10 00:37:33;;;;;;;10.00;6.50;;;9.90;99.90;;;;;;4931937;29;20044;-80
2024/02/10 00:40:03;;;;;;;7.07;6.38;;;10.00;99.90;;;;;;4908872;29;20630;-79
2024/02/10 00:42:31;;;;;;;10.80;7.28;;;10.00;99.90;;;;;;4882024;29;20493;-80
2024/02/10 00:45:07;;;;;;;10.73;6.15;;;9.90;99.90;;;;;;4900114;29;20055;-80
2024/02/10 00:47:35;;;;;;;7.95;6.10;;;10.00;99.90;;;;;;4909873;29;20047;-80
2024/02/10 00:50:03;;;;;;;5.93;4.50;;;9.90;99.90;;;;;;4908103;29;20047;-80
2024/02/10 00:52:31;;;;;;;9.88;6.63;;;9.90;99.90;;;;;;4901683;29;20052;-80
2024/02/10 00:54:58;;;;;;;7.18;5.65;;;9.90;99.90;;;;;;4926124;29;20044;-80
2024/02/10 00:57:28;;;;;;;8.45;6.28;;;9.90;99.90;;;;;;4924716;29;20052;-80
2024/02/10 00:59:56;;;;;;;6.15;5.10;;;9.90;99.90;;;;;;4889869;29;20044;-80
2024/02/10 01:02:23;;;;;;;8.50;7.20;;;9.90;99.90;;;;;;4888745;29;20066;-80
2024/02/10 01:04:53;;;;;;;10.55;7.40;;;9.90;99.90;;;;;;4911907;29;20458;-80
2024/02/10 01:07:24;;;;;;;8.27;6.45;;;9.90;99.90;;;;;;4912699;29;20143;-80
2024/02/10 01:09:52;;;;;;;8.20;7.00;;;9.80;99.90;;;;;;4918300;29;20055;-80
2024/02/10 01:12:19;;;;;;;4.82;4.05;;;9.80;99.90;;;;;;4932882;29;20040;-80
2024/02/10 01:14:46;;;;;;;8.27;7.10;;;9.70;99.90;;;;;;4906983;29;20048;-80
2024/02/10 01:17:14;;;;;;;4.68;4.28;;;9.70;99.90;;;;;;4904232;29;20074;-80
2024/02/10 01:19:49;;;;;;;5.85;5.00;;;9.80;99.90;;;;;;4902347;29;20387;-80
2024/02/10 01:22:23;;;;;;;4.68;3.88;;;9.80;99.90;;;;;;4925671;29;20608;-80
2024/02/10 01:24:59;;;;;;;7.68;6.80;;;9.80;99.90;;;;;;4924001;29;20395;-80
2024/02/10 01:27:27;;;;;;;9.60;7.50;;;9.80;99.90;;;;;;4915696;29;20151;-80
2024/02/10 01:29:57;;;;;;;8.02;5.80;;;9.80;99.90;;;;;;4913481;29;20044;-80
2024/02/10 01:32:25;;;;;;;6.68;5.22;;;9.80;99.90;;;;;;4910371;29;20115;-80
2024/02/10 01:34:53;;;;;;;6.15;5.18;;;9.80;99.90;;;;;;4900918;29;20130;-80
2024/02/10 01:37:22;;;;;;;14.60;7.72;;;9.80;99.90;;;;;;4905614;29;20040;-80
2024/02/10 01:39:54;;;;;;;15.25;7.70;;;9.80;99.90;;;;;;4919695;28;20043;-81
2024/02/10 01:42:27;;;;;;;7.15;4.90;;;9.80;99.90;;;;;;4921289;29;20055;-80
2024/02/10 01:44:54;;;;;;;10.60;6.55;;;9.70;99.90;;;;;;4900448;29;20054;-80
2024/02/10 01:47:21;;;;;;;10.35;6.80;;;9.80;99.90;;;;;;4914959;29;20047;-80
2024/02/10 01:49:49;;;;;;;10.00;5.47;;;9.80;99.90;;;;;;4933233;28;20051;-80
2024/02/10 01:52:16;;;;;;;7.05;5.78;;;9.80;99.90;;;;;;4926723;29;20039;-79
2024/02/10 01:54:47;;;;;;;6.03;5.05;;;9.70;99.90;;;;;;4921577;29;20525;-80
2024/02/10 01:57:15;;;;;;;7.25;4.93;;;9.70;99.90;;;;;;4930873;29;20037;-80
2024/02/10 01:59:43;;;;;;;10.32;6.60;;;9.70;99.90;;;;;;4905236;29;20043;-79
2024/02/10 02:02:14;;;;;;;9.30;6.13;;;9.70;99.90;;;;;;4907996;29;20503;-80
2024/02/10 02:04:43;;;;;;;8.77;5.15;;;9.70;99.90;;;;;;4910354;29;20051;-80
2024/02/10 02:07:10;;;;;;;10.60;6.95;;;9.70;99.90;;;;;;4922363;29;20039;-80
2024/02/10 02:09:39;;;;;;;7.75;6.20;;;9.70;99.90;;;;;;4920130;29;20059;-81
2024/02/10 02:12:07;;;;;;;8.52;6.35;;;9.70;99.90;;;;;;4917339;28;20402;-81
2024/02/10 02:14:37;;;;;;;9.60;7.47;;;9.70;99.90;;;;;;4923733;29;20039;-79
2024/02/10 02:17:05;;;;;;;12.38;7.88;;;9.70;99.90;;;;;;4935159;29;20055;-80
2024/02/10 02:19:33;;;;;;;7.93;4.95;;;9.70;99.90;;;;;;4914580;29;20039;-80
2024/02/10 02:22:03;;;;;;;8.82;6.82;;;9.70;99.90;;;;;;4911248;29;20406;-79
2024/02/10 02:24:31;;;;;;;12.65;9.05;;;9.70;99.90;;;;;;4920562;29;20522;-80
2024/02/10 02:26:59;;;;;;;8.82;6.82;;;9.70;99.90;;;;;;4919743;29;20562;-80
2024/02/10 02:29:26;;;;;;;11.20;5.70;;;9.70;99.90;;;;;;4911609;29;20047;-80
2024/02/10 02:31:56;;;;;;;12.60;8.25;;;9.60;99.90;;;;;;4919433;29;20583;-80
2024/02/10 02:34:25;;;;;;;9.43;7.18;;;9.60;99.90;;;;;;4882644;29;20058;-81
2024/02/10 02:36:53;;;;;;;7.75;7.03;;;9.50;99.90;;;;;;4929757;29;20047;-81
2024/02/10 02:39:21;;;;;;;7.38;5.85;;;9.40;99.90;;;;;;4936291;28;20043;-80
2024/02/10 02:41:48;;;;;;;7.93;6.15;;;9.30;99.90;;;;;;4923745;29;20075;-81
2024/02/10 02:44:16;;;;;;;8.27;5.57;;;9.20;99.90;;;;;;4915263;29;20143;-80
2024/02/10 02:46:44;;;;;;;9.60;7.50;;;9.20;99.90;;;;;;4901797;29;20134;-79
2024/02/10 02:49:14;;;;;;;6.18;5.25;;;9.20;99.90;;;;;;4918324;29;20048;-80
2024/02/10 02:51:42;;;;;;;7.93;6.63;;;9.10;99.90;;;;;;4937146;28;20039;-81
2024/02/10 02:54:10;;;;;;;8.68;6.25;;;9.10;99.90;;;;;;4916233;29;20055;-80
2024/02/10 02:56:38;;;;;;;8.70;7.18;;;9.10;99.90;;;;;;4924329;29;20506;-80
2024/02/10 02:59:07;;;;;;;9.07;5.57;;;9.10;99.90;;;;;;4886983;29;20048;-80
2024/02/10 03:01:34;;;;;;;10.73;8.25;;;9.10;99.90;;;;;;4903395;29;20063;-80
2024/02/10 03:04:01;;;;;;;10.00;8.50;;;9.10;99.90;;;;;;4930730;29;20047;-80
2024/02/10 03:06:28;;;;;;;15.95;8.48;;;9.10;99.90;;;;;;4904288;29;20055;-80
2024/02/10 03:08:56;;;;;;;7.07;5.13;;;9.20;99.90;;;;;;4887137;29;20602;-79
2024/02/10 03:11:26;;;;;;;12.88;7.47;;;9.20;99.90;;;;;;4926622;29;20079;-81
2024/02/10 03:13:53;;;;;;;8.38;4.95;;;9.30;99.90;;;;;;4924369;29;20039;-80
2024/02/10 03:16:20;;;;;;;8.48;6.28;;;9.30;99.90;;;;;;4899880;29;20503;-80
2024/02/10 03:18:48;;;;;;;8.50;6.45;;;9.40;99.90;;;;;;4911086;29;20039;-80
2024/02/10 03:21:20;;;;;;;11.13;6.68;;;9.50;99.90;;;;;;4890064;29;20056;-80
2024/02/10 03:23:47;;;;;;;8.90;5.70;;;9.50;99.90;;;;;;4883711;29;20062;-80
2024/02/10 03:26:14;;;;;;;11.75;6.97;;;9.50;99.90;;;;;;4885381;29;20134;-80
2024/02/10 03:28:42;;;;;;;8.40;5.53;;;9.60;99.90;;;;;;4886327;29;20071;-80
2024/02/10 03:31:10;;;;;;;10.45;8.05;;;9.60;99.90;;;;;;4922865;29;20464;-80
2024/02/10 03:33:37;;;;;;;8.07;6.28;;;9.70;99.90;;;;;;4914690;29;20566;-80
2024/02/10 03:36:05;;;;;;;9.63;5.60;;;9.70;99.90;;;;;;4903569;29;20494;-80
2024/02/10 03:38:32;;;;;;;7.03;5.90;;;9.70;99.90;;;;;;4908280;29;20499;-80
2024/02/10 03:40:59;;;;;;;8.40;7.03;;;9.70;99.90;;;;;;4906861;29;20491;-81
2024/02/10 03:43:27;;;;;;;7.13;5.07;;;9.70;99.90;;;;;;4884683;29;20058;-80
2024/02/10 03:46:01;;;;;;;9.00;7.10;;;9.80;99.90;;;;;;4932560;29;20433;-80
2024/02/10 03:48:28;;;;;;;12.65;7.65;;;9.80;99.90;;;;;;4917021;29;20531;-81
2024/02/10 03:50:55;;;;;;;10.57;7.45;;;9.80;99.90;;;;;;4903722;29;20051;-82
2024/02/10 03:53:24;;;;;;;7.13;6.43;;;9.80;99.90;;;;;;4916836;29;20376;-80
2024/02/10 03:55:56;;;;;;;14.80;7.32;;;9.80;99.90;;;;;;4914916;29;20046;-81
2024/02/10 03:58:24;;;;;;;12.05;7.53;;;9.80;99.90;;;;;;4887276;29;20051;-82
2024/02/10 04:00:53;;;;;;;8.43;7.53;;;9.90;99.90;;;;;;4901641;29;20055;-81
2024/02/10 04:03:21;;;;;;;6.75;5.03;;;9.90;99.90;;;;;;4949348;28;20062;-81
2024/02/10 04:05:48;;;;;;;8.68;7.88;;;9.90;99.90;;;;;;4926236;28;20058;-81
2024/02/10 04:08:19;;;;;;;7.35;6.38;;;9.90;99.90;;;;;;4918522;29;20055;-81
2024/02/10 04:10:46;;;;;;;6.80;6.03;;;10.00;99.90;;;;;;4921239;29;20047;-81
2024/02/10 04:13:13;;;;;;;8.40;6.22;;;9.90;99.90;;;;;;4889692;29;20126;-81
2024/02/10 04:15:42;;;;;;;10.30;7.15;;;10.00;99.90;;;;;;4889029;29;20063;-81
2024/02/10 04:18:09;;;;;;;7.45;6.78;;;10.00;99.90;;;;;;4923428;29;20046;-82
2024/02/10 04:20:36;;;;;;;7.82;6.38;;;10.00;99.90;;;;;;4895431;29;20071;-81
2024/02/10 04:23:05;;;;;;;11.07;6.68;;;10.00;99.90;;;;;;4906792;29;20082;-81
2024/02/10 04:25:32;;;;;;;11.00;7.55;;;10.10;99.90;;;;;;4905231;29;20063;-81
2024/02/10 04:28:03;;;;;;;9.45;5.55;;;10.10;99.90;;;;;;4917205;28;20043;-81
2024/02/10 04:30:30;;;;;;;9.45;7.82;;;10.10;99.90;;;;;;4878418;29;20486;-82
2024/02/10 04:32:58;;;;;;;8.55;6.03;;;10.10;99.90;;;;;;4918320;29;20044;-81
2024/02/10 04:35:25;;;;;;;9.73;6.78;;;10.00;99.90;;;;;;4897419;29;20095;-81
2024/02/10 04:37:53;;;;;;;10.02;5.63;;;10.00;99.90;;;;;;4916302;29;20047;-80
2024/02/10 04:40:23;;;;;;;7.82;5.88;;;9.90;99.90;;;;;;4904506;29;20078;-81
2024/02/10 04:42:52;;;;;;;8.32;6.22;;;9.80;99.90;;;;;;4918141;29;20052;-80
2024/02/10 04:45:27;;;;;;;5.50;4.50;;;9.80;99.90;;;;;;4889517;29;20053;-80
2024/02/10 04:47:56;;;;;;;6.15;4.55;;;9.70;99.90;;;;;;4940694;28;20048;-81
2024/02/10 04:50:24;;;;;;;9.07;5.97;;;9.60;99.90;;;;;;4888423;29;20054;-81
2024/02/10 04:52:51;;;;;;;8.48;5.95;;;9.60;99.90;;;;;;4911828;28;20526;-81
2024/02/10 04:55:21;;;;;;;5.20;4.35;;;9.60;99.90;;;;;;4925480;29;20547;-80
2024/02/10 04:57:48;;;;;;;7.32;4.28;;;9.50;99.90;;;;;;4907476;29;20384;-81
2024/02/10 05:00:17;;;;;;;14.32;7.50;;;9.50;99.90;;;;;;4870403;29;20418;-80
2024/02/10 05:02:46;;;;;;;9.30;5.72;;;9.50;99.90;;;;;;4914448;29;20153;-80
2024/02/10 05:05:17;;;;;;;7.60;5.25;;;9.50;99.90;;;;;;4896046;29;20056;-80
2024/02/10 05:07:53;;;;;;;7.30;5.90;;;9.50;99.90;;;;;;4887210;29;20055;-79
2024/02/10 05:10:23;;;;;;;7.97;6.40;;;9.50;99.90;;;;;;4920271;29;20056;-80
2024/02/10 05:12:56;;;;;;;6.68;4.45;;;9.50;99.90;;;;;;4910601;29;20145;-80
2024/02/10 05:15:25;;;;;;;10.27;7.53;;;9.50;99.90;;;;;;4900776;29;20123;-80
2024/02/10 05:17:53;;;;;;;8.75;7.18;;;9.60;99.90;;;;;;4935193;28;20412;-80
2024/02/10 05:20:26;;;;;;;9.98;6.75;;;9.60;99.90;;;;;;4930645;29;20039;-80
2024/02/10 05:22:57;;;;;;;10.02;6.70;;;9.60;99.90;;;;;;4906379;29;20462;-79
2024/02/10 05:25:27;;;;;;;7.70;5.88;;;9.50;99.90;;;;;;4936451;29;20058;-80
2024/02/10 05:27:59;;;;;;;6.70;5.40;;;9.50;99.90;;;;;;4931736;29;20048;-80
2024/02/10 05:30:28;;;;;;;11.52;7.60;;;9.50;99.90;;;;;;4935644;29;20055;-80
2024/02/10 05:33:02;;;;;;;8.60;5.65;;;9.60;99.90;;;;;;4938432;29;20040;-81
2024/02/10 05:35:31;;;;;;;10.85;4.90;;;9.60;99.90;;;;;;4920877;29;20130;-81
2024/02/10 05:38:02;;;;;;;10.35;7.20;;;9.60;99.90;;;;;;4926626;29;20040;-81
2024/02/10 05:40:30;;;;;;;10.15;6.40;;;9.70;99.90;;;;;;4923799;29;20055;-80
2024/02/10 05:42:58;;;;;;;8.98;5.95;;;9.70;99.90;;;;;;4902219;29;20107;-81
2024/02/10 05:45:28;;;;;;;10.90;7.63;;;9.80;99.90;;;;;;4890723;29;20044;-82
2024/02/10 05:47:55;;;;;;;8.25;6.75;;;9.80;99.90;;;;;;4899089;28;20059;-81
2024/02/10 05:50:24;;;;;;;9.85;7.75;;;9.80;99.90;;;;;;4923238;29;20410;-81
2024/02/10 05:52:53;;;;;;;11.05;7.32;;;9.90;99.90;;;;;;4914319;29;20149;-81
2024/02/10 05:55:25;;;;;;;8.68;6.80;;;9.90;99.90;;;;;;4941910;29;20039;-81
2024/02/10 05:57:55;;;;;;;7.97;5.47;;;9.90;99.90;;;;;;4909568;29;20071;-80
2024/02/10 06:00:22;;;;;;;8.50;5.38;;;9.90;99.90;;;;;;4902069;29;20550;-79
2024/02/10 06:02:50;;;;;;;7.47;5.68;;;9.90;99.90;;;;;;4901347;29;20058;-82
2024/02/10 06:05:18;;;;;;;11.38;7.53;;;10.00;99.90;;;;;;4902556;29;20064;-80
2024/02/10 06:07:48;;;;;;;12.75;8.60;;;10.00;99.90;;;;;;4938051;28;20051;-80
2024/02/10 06:10:16;;;;;;;7.55;5.15;;;10.00;99.90;;;;;;4889226;29;20043;-80
2024/02/10 06:12:49;;;;;;;10.23;7.78;;;10.00;99.90;;;;;;4921841;29;20058;-80
2024/02/10 06:15:18;;;;;;;10.82;7.53;;;10.10;99.90;;;;;;4905043;29;20427;-79
2024/02/10 06:17:48;;;;;;;10.10;7.22;;;10.10;99.90;;;;;;4918303;29;20036;-79
2024/02/10 06:20:15;;;;;;;12.65;9.43;;;10.10;99.90;;;;;;4927456;29;20068;-79
2024/02/10 06:22:47;;;;;;;13.40;7.78;;;10.10;99.90;;;;;;4904533;29;20044;-80
2024/02/10 06:25:25;;;;;;;11.23;8.70;;;10.10;99.90;;;;;;4935536;29;20142;-79
2024/02/10 06:27:58;;;;;;;9.18;6.53;;;10.10;99.90;;;;;;4892769;29;20056;-80
2024/02/10 06:30:30;;;;;;;10.63;8.75;;;10.10;99.90;;;;;;4892626;29;20154;-80
2024/02/10 06:32:58;;;;;;;13.10;8.73;;;10.10;99.90;;;;;;4887529;29;20044;-80
2024/02/10 06:35:27;;;;;;;8.52;6.05;;;10.20;99.90;;;;;;4917382;29;20051;-79
2024/02/10 06:37:55;;;;;;;13.60;9.27;;;10.20;99.90;;;;;;4909534;29;20052;-80
2024/02/10 06:40:22;;;;;;;20.27;10.45;;;10.10;99.90;;;;;;4917431;29;20047;-80
2024/02/10 06:42:52;;;;;;;10.98;7.95;;;10.20;99.90;;;;;;4920330;29;20048;-80
2024/02/10 06:45:24;;;;;;;8.98;6.38;;;10.20;99.90;;;;;;4916960;29;20067;-80
2024/02/10 06:47:52;;;;;;;10.75;7.18;;;10.20;99.90;;;;;;4897967;28;20036;-80
2024/02/10 06:50:24;;;;;;;14.38;9.55;;;10.20;99.90;;;;;;4902255;29;20811;-80
2024/02/10 06:52:52;;;;;;;12.73;6.35;;;10.20;99.90;;;;;;4940282;28;20143;-80
2024/02/10 06:55:23;;;;;;;13.90;9.27;;;10.20;99.90;;;;;;4888460;29;20047;-80
2024/02/10 06:57:52;;;;;;;9.10;7.25;;;10.20;99.90;;;;;;4902482;29;20126;-80
2024/02/10 07:00:20;;;;;;;11.68;7.45;;;10.20;99.90;;;;;;4905194;29;20044;-80
2024/02/10 07:02:48;;;;;;;12.18;9.07;;;10.20;99.90;;;;;;4907518;29;20085;-81
2024/02/10 07:05:17;;;;;;;7.90;5.50;;;10.30;99.90;;;;;;4923968;29;20047;-81
2024/02/10 07:07:48;;;;;;;16.55;11.35;;;10.20;99.90;;;;;;4905776;29;20051;-81
2024/02/10 07:10:19;;;;;;;10.15;6.43;;;10.30;99.90;;;;;;4936746;29;20050;-81
2024/02/10 07:12:48;;;;;;;13.13;8.95;;;10.20;99.90;;;;;;4917171;29;20048;-81
2024/02/10 07:15:20;;;;;;;13.68;7.97;;;10.30;99.90;;;;;;4920231;29;20173;-80
2024/02/10 07:17:50;;;;;;;16.83;12.52;;;10.30;99.90;;;;;;4903066;29;20050;-80
2024/02/10 07:20:20;;;;;;;10.73;7.60;;;10.30;99.90;;;;;;4909766;29;20044;-80
2024/02/10 07:22:56;;;;;;;15.75;8.55;;;10.30;99.90;;;;;;4926939;29;20520;-80
2024/02/10 07:25:31;;;;;;;9.95;8.45;;;10.30;99.90;;;;;;4921015;29;20048;-81
2024/02/10 07:28:03;;;;;;;10.95;8.48;;;10.30;99.90;;;;;;4917731;29;20047;-80
2024/02/10 07:30:32;;;;;;;16.23;10.68;;;10.30;99.90;;;;;;4919766;29;20499;-80
2024/02/10 07:33:08;;;;;;;16.27;10.90;;;10.40;99.90;;;;;;4928676;29;20051;-80
2024/02/10 07:35:37;;;;;;;16.15;10.88;;;10.40;99.90;;;;;;4938805;29;20047;-80
2024/02/10 07:38:04;;;;;;;13.75;9.80;;;10.40;99.90;;;;;;4895707;29;20574;-80
2024/02/10 07:40:32;;;;;;;13.80;10.40;;;10.40;99.90;;;;;;4906434;29;20123;-81
2024/02/10 07:42:59;;;;;;;9.63;7.20;;;10.50;99.90;;;;;;4917033;29;20048;-80
2024/02/10 07:45:26;;;;;;;13.00;9.75;;;10.50;99.90;;;;;;4900654;29;20050;-80
2024/02/10 07:47:55;;;;;;;11.43;7.18;;;10.60;99.90;;;;;;4918563;29;20048;-80
2024/02/10 07:50:23;;;;;;;15.50;10.45;;;10.60;99.90;;;;;;4931532;29;20044;-81
2024/02/10 07:52:53;;;;;;;13.02;10.23;;;10.60;99.90;;;;;;4911930;29;20043;-80
2024/02/10 07:55:20;;;;;;;13.90;7.60;;;10.60;99.90;;;;;;4882421;29;20090;-80
2024/02/10 07:57:48;;;;;;;8.13;5.78;;;10.60;99.90;;;;;;4917976;29;20051;-80
2024/02/10 08:00:18;;;;;;;21.00;11.68;;;10.60;99.90;;;;;;4914261;29;20091;-81
2024/02/10 08:02:46;;;;;;;;;;;10.70;99.90;;;;;;4914388;29;20070;-81
2024/02/10 08:05:19;;;;;;;11.63;7.35;;;10.70;99.90;;;;;;4915702;29;19978;-80
2024/02/10 08:07:48;;;;;;;8.82;5.22;;;10.70;99.90;;;;;;4901302;29;20060;-82
2024/02/10 08:10:15;;;;;;;16.27;10.15;;;10.70;99.90;;;;;;4920210;29;20055;-81
2024/02/10 08:12:45;;;;;;;10.80;7.97;;;10.70;99.90;;;;;;4902479;29;20131;-81
2024/02/10 08:15:13;;;;;;;13.15;8.63;;;10.70;99.90;;;;;;4886221;29;20123;-80
2024/02/10 08:17:40;;;;;;;12.90;10.02;;;10.80;99.90;;;;;;4901566;29;20067;-81
2024/02/10 08:20:11;;;;;;;13.32;8.60;;;10.80;99.90;;;;;;4914474;29;20643;-80
2024/02/10 08:22:39;;;;;;;12.90;9.15;;;10.90;99.90;;;;;;4900511;29;20510;-81
2024/02/10 08:25:09;;;;;;;9.38;6.60;;;10.90;99.90;;;;;;4902132;29;20474;-81
2024/02/10 08:27:39;;;;;;;13.65;10.50;;;10.90;99.90;;;;;;4929285;29;20040;-81
2024/02/10 08:30:10;;;;;;;5.90;3.67;;;10.90;99.90;;;;;;4938371;28;20059;-81
2024/02/10 08:32:38;;;;;;;6.22;3.85;;;10.90;99.90;;;;;;4903167;29;20047;-80
2024/02/10 08:35:06;;;;;;;11.68;8.60;;;10.90;99.90;;;;;;4899007;29;20036;-81
2024/02/10 08:37:34;;;;;;;10.20;7.00;;;10.90;99.90;;;;;;4898905;29;20587;-81
2024/02/10 08:40:03;;;;;;;7.68;5.78;;;10.90;99.90;;;;;;4915769;29;20048;-78
2024/02/10 08:42:30;;;;;;;5.43;4.20;;;11.00;99.90;;;;;;4915670;29;20047;-81
2024/02/10 08:44:57;;;;;;;9.43;6.60;;;11.00;99.90;;;;;;4915826;29;20048;-81
2024/02/10 08:47:28;;;;;;;7.43;5.95;;;11.00;99.90;;;;;;4913506;29;20044;-80
2024/02/10 08:49:56;;;;;;;8.60;6.57;;;11.00;99.90;;;;;;4914490;29;20411;-81
2024/02/10 08:52:23;;;;;;;4.82;4.03;;;11.00;99.90;;;;;;4882082;29;20051;-80
2024/02/10 08:54:52;;;;;;;9.00;6.68;;;11.10;99.90;;;;;;4898075;29;20491;-81
2024/02/10 08:57:19;;;;;;;10.93;7.45;;;11.00;99.90;;;;;;4917711;29;20682;-80
2024/02/10 08:59:51;;;;;;;9.75;6.47;;;11.10;99.90;;;;;;4900783;29;20062;-80
2024/02/10 09:02:22;;;;;;;10.60;7.13;;;11.10;99.90;;;;;;4903526;29;20444;-78
2024/02/10 09:04:51;;;;;;;5.93;5.15;;;11.20;99.90;;;;;;4894364;29;20415;-80
2024/02/10 09:07:19;;;;;;;6.00;5.30;;;11.20;99.90;;;;;;4921291;29;20139;-80
2024/02/10 09:09:46;;;;;;;6.20;5.30;;;11.30;99.90;;;;;;4918728;29;20414;-80
2024/02/10 09:12:16;;;;;;;5.47;4.05;;;11.20;99.90;;;;;;4903585;29;20043;-80
2024/02/10 09:14:44;;;;;;;10.45;6.55;;;11.30;99.90;;;;;;4899336;29;20418;-81
2024/02/10 09:17:11;;;;;;;8.52;6.85;;;11.30;99.90;;;;;;4893491;29;20055;-81
2024/02/10 09:19:39;;;;;;;7.97;6.30;;;11.30;99.90;;;;;;4888485;29;20048;-81
2024/02/10 09:22:06;;;;;;;7.10;5.60;;;11.30;99.90;;;;;;4919767;29;20058;-81
2024/02/10 09:24:35;;;;;;;7.30;5.88;;;11.30;99.90;;;;;;4924318;29;20059;-80
2024/02/10 09:27:09;;;;;;;8.82;6.50;;;11.40;99.90;;;;;;4889682;29;20123;-81
2024/02/10 09:29:36;;;;;;;9.05;5.38;;;11.40;99.90;;;;;;4886918;29;20059;-80
2024/02/10 09:32:04;;;;;;;8.07;5.13;;;11.40;99.90;;;;;;4902769;29;20060;-81
2024/02/10 09:34:31;;;;;;;8.52;6.30;;;11.50;99.90;;;;;;4898220;29;20064;-80
2024/02/10 09:36:59;;;;;;;7.90;6.25;;;11.60;99.90;;;;;;4904324;29;20100;-81
2024/02/10 09:39:26;;;;;;;9.88;5.28;;;11.60;99.90;;;;;;4921925;29;20044;-81
2024/02/10 09:42:00;;;;;;;8.50;7.40;;;11.70;99.90;;;;;;4925556;29;20047;-83
2024/02/10 09:44:31;;;;;;;11.40;6.57;;;11.80;99.90;;;;;;4921191;29;20123;-81
2024/02/10 09:47:00;;;;;;;6.93;4.00;;;11.90;99.90;;;;;;4923315;29;20050;-82
2024/02/10 09:49:29;;;;;;;6.70;5.05;;;11.90;99.90;;;;;;4902222;29;20040;-82
2024/02/10 09:51:58;;;;;;;8.07;6.50;;;12.00;99.90;;;;;;4892906;29;20055;-81
2024/02/10 09:54:26;;;;;;;10.63;7.50;;;12.10;99.90;;;;;;4926916;29;20073;-81
2024/02/10 09:56:57;;;;;;;4.70;3.95;;;12.20;99.90;;;;;;4883927;29;20040;-82
2024/02/10 09:59:26;;;;;;;5.78;4.47;;;12.20;99.90;;;;;;4933544;29;20130;-81
2024/02/10 10:01:55;;;;;;;7.53;5.20;;;12.30;99.90;;;;;;4937153;29;20125;-81
2024/02/10 10:04:22;;;;;;;6.00;4.97;;;12.30;99.90;;;;;;4902404;29;20043;-80
2024/02/10 10:06:49;;;;;;;6.65;3.20;;;12.40;99.90;;;;;;4893676;29;20047;-80
2024/02/10 10:09:20;;;;;;;8.20;6.00;;;12.60;99.90;;;;;;4915993;29;20138;-79
2024/02/10 10:11:49;;;;;;;7.55;5.95;;;12.60;99.90;;;;;;4920525;29;20084;-79
2024/02/10 10:14:17;;;;;;;4.60;3.90;;;12.60;99.90;;;;;;4923581;29;20127;-79
2024/02/10 10:17:04;;;;;;;9.77;4.93;;;12.50;99.90;;;;;;4916954;29;20118;-78
2024/02/10 10:19:32;;;;;;;6.82;5.35;;;12.50;99.90;;;;;;4943983;28;20039;-79
2024/02/10 10:21:59;;;;;;;7.10;5.50;;;12.50;99.90;;;;;;4918445;29;20130;-79
2024/02/10 10:24:27;;;;;;;6.50;5.22;;;12.50;99.90;;;;;;4903275;29;20123;-79
2024/02/10 10:27:02;;;;;;;8.02;3.83;;;12.60;99.90;;;;;;4924033;29;20822;-80
2024/02/10 10:29:31;;;;;;;5.18;4.50;;;12.70;99.90;;;;;;4921777;29;20050;-79
2024/02/10 10:32:01;;;;;;;8.02;6.22;;;12.80;99.90;;;;;;4904746;29;20044;-79
2024/02/10 10:34:31;;;;;;;5.75;4.35;;;12.90;99.90;;;;;;4919186;29;20047;-79
2024/02/10 10:37:03;;;;;;;8.57;5.80;;;13.00;99.90;;;;;;4907904;29;20050;-79
2024/02/10 10:39:36;;;;;;;4.97;4.47;;;13.10;99.90;;;;;;4915888;29;20483;-80
2024/02/10 10:42:04;;;;;;;6.35;4.20;;;13.20;99.90;;;;;;4911809;29;20126;-79
2024/02/10 10:44:32;;;;;;;5.68;4.25;;;13.50;99.90;;;;;;4918834;29;20052;-80
2024/02/10 10:47:01;;;;;;;10.30;6.43;;;13.80;99.90;;;;;;4910127;29;20048;-79
2024/02/10 10:49:28;;;;;;;8.70;6.78;;;14.00;99.90;;;;;;4900048;29;20043;-80
2024/02/10 10:52:02;;;;;;;6.53;5.15;;;14.30;99.90;;;;;;4935167;29;20047;-80
2024/02/10 10:54:37;;;;;;;6.18;4.60;;;14.80;99.90;;;;;;4921827;29;20577;-81
2024/02/10 10:57:15;;;;;;;3.28;2.97;;;15.20;99.90;;;;;;4920478;29;20047;-81
2024/02/10 10:59:50;;;;;;;4.90;4.20;;;15.50;99.90;;;;;;4925959;29;20043;-81
2024/02/10 11:02:19;;;;;;;5.05;4.63;;;15.70;99.90;;;;;;4908220;29;20044;-80
2024/02/10 11:05:04;;;;;;;4.32;3.83;;;15.60;99.90;;;;;;4902247;29;20124;-80
2024/02/10 11:07:32;;;;;;;4.88;3.88;;;15.40;99.90;;;;;;4885881;29;20040;-81
2024/02/10 11:10:00;;;;;;;4.80;3.42;;;15.20;99.90;;;;;;4917764;29;20142;-80
2024/02/10 11:12:31;;;;;;;5.10;4.25;;;15.30;99.90;;;;;;4916395;29;20051;-80
2024/02/10 11:14:59;;;;;;;6.63;4.53;;;15.40;99.90;;;;;;4887517;29;20047;-78
2024/02/10 11:17:34;;;;;;;5.15;3.58;;;15.60;99.90;;;;;;4906951;29;20131;-78
2024/02/10 11:20:07;;;;;;;4.85;4.35;;;15.80;99.90;;;;;;4899962;29;20512;-80
2024/02/10 11:22:44;;;;;;;6.30;4.78;;;15.90;99.90;;;;;;4932850;29;20040;-78
2024/02/10 11:25:12;;;;;;;6.35;4.88;;;16.10;99.90;;;;;;4932689;29;20055;-80
2024/02/10 11:27:43;;;;;;;6.55;5.95;;;15.90;99.90;;;;;;4890293;29;20047;-80
2024/02/10 11:30:10;;;;;;;5.05;3.65;;;15.70;99.90;;;;;;4904888;29;20051;-81
2024/02/10 11:32:37;;;;;;;8.15;4.70;;;15.40;99.90;;;;;;4916458;29;20051;-80
2024/02/10 11:35:06;;;;;;;5.70;3.85;;;15.30;99.90;;;;;;4917189;29;20459;-81
2024/02/10 11:37:34;;;;;;;3.88;3.17;;;15.40;99.90;;;;;;4916596;29;20047;-80
2024/02/10 11:40:02;;;;;;;6.72;4.00;;;15.40;99.90;;;;;;4919916;29;20415;-80
2024/02/10 11:42:30;;;;;;;5.75;3.53;;;15.40;99.90;;;;;;4923379;29;20047;-80
2024/02/10 11:45:00;;;;;;;4.85;3.63;;;15.40;99.90;;;;;;4916897;29;20055;-80
2024/02/10 11:47:28;;;;;;;6.07;3.65;;;15.60;99.90;;;;;;4884566;29;20047;-80
2024/02/10 11:49:56;;;;;;;6.18;4.47;;;15.90;99.90;;;;;;4900463;29;20054;-80
2024/02/10 11:52:26;;;;;;;5.93;4.38;;;16.10;99.90;;;;;;4932574;29;20768;-80
2024/02/10 11:54:54;;;;;;;3.83;2.97;;;16.20;99.90;;;;;;4901027;29;20048;-80
2024/02/10 11:57:22;;;;;;;4.15;3.38;;;16.40;99.90;;;;;;4903075;29;20103;-80
2024/02/10 11:59:51;;;;;;;8.15;4.20;;;16.60;99.90;;;;;;4913436;29;20514;-81
2024/02/10 12:02:23;;;;;;;5.05;3.83;;;16.70;99.90;;;;;;4930173;29;20051;-81
2024/02/10 12:04:50;;;;;;;2.72;2.20;;;16.80;99.90;;;;;;4893893;29;20059;-80
2024/02/10 12:07:18;;;;;;;4.38;3.83;;;16.80;99.90;;;;;;4901296;29;21644;-81
2024/02/10 12:09:47;;;;;;;3.35;3.05;;;16.80;99.90;;;;;;4897894;29;20051;-81
2024/02/10 12:12:15;;;;;;;5.57;4.82;;;16.90;99.90;;;;;;4900100;29;20042;-81
2024/02/10 12:14:44;;;;;;;4.70;3.78;;;17.00;99.90;;;;;;4901190;29;20039;-81
2024/02/10 12:17:19;;;;;;;4.07;3.00;;;17.00;98.60;;;;;;4899732;29;20044;-81
2024/02/10 12:19:48;;;;;;;6.15;3.88;;;16.90;99.60;;;;;;4918501;29;20039;-81
2024/02/10 12:22:19;;;;;;;3.92;3.47;;;16.70;98.80;;;;;;4917269;29;20059;-79
2024/02/10 12:24:47;;;;;;;;;;;16.50;99.40;;;;;;4918048;29;20048;-81
2024/02/10 12:27:15;;;;;;;4.47;3.60;;;16.40;99.20;;;;;;4929437;29;19974;-82
2024/02/10 12:29:42;;;;;;;3.30;2.35;;;16.40;99.70;;;;;;4886479;29;20036;-82
2024/02/10 12:32:10;;;;;;;3.58;3.28;;;16.60;99.90;;;;;;4901193;29;20040;-82
2024/02/10 12:34:38;;;;;;;5.20;2.88;;;16.60;99.10;;;;;;4887489;29;20541;-82
2024/02/10 12:37:06;;;;;;;3.47;3.17;;;16.70;99.80;;;;;;4915512;29;20108;-81
2024/02/10 12:39:33;;;;;;;4.93;2.75;;;16.90;99.40;;;;;;4902178;28;20047;-81
2024/02/10 12:42:01;;;;;;;4.28;2.75;;;17.00;98.90;;;;;;4921403;29;20550;-81
2024/02/10 12:44:28;;;;;;;7.82;4.15;;;16.90;98.50;;;;;;4909703;29;20063;-81
2024/02/10 12:46:56;;;;;;;4.80;4.20;;;16.90;99.10;;;;;;4885478;29;20062;-80
2024/02/10 12:49:25;;;;;;;4.78;4.18;;;16.90;98.40;;;;;;4894900;29;20054;-79
2024/02/10 12:51:55;;;;;;;5.10;3.85;;;16.80;98.20;;;;;;4899253;29;20400;-80
2024/02/10 12:54:27;;;;;;;5.85;4.20;;;16.70;98.10;;;;;;4901652;29;20052;-79
2024/02/10 12:56:56;;;;;;;5.15;2.72;;;16.50;98.80;;;;;;4903200;29;20056;-80